Time,TemperatureF,DewpointF,PressureIn,WindDirection,WindDirectionDegrees,WindSpeedMPH,WindSpeedGustMPH,Humidity,HourlyPrecipIn,Conditions,Clouds,dailyrainin,SoftwareType,DateUTC
2013-04-04 00:00:00,44.6,33.6,29.90,NE,41,1.0,3.0,65,0.00,,,0.00,VWS V14.01,2013-04-04 06:00:00,
2013-04-04 00:01:00,44.6,33.6,29.90,NE,41,1.0,2.0,65,0.00,,,0.00,VWS V14.01,2013-04-04 06:01:00,
2013-04-04 00:05:00,44.2,33.6,29.89,NNW,338,3.0,3.0,66,0.00,,,0.00,VWS V14.01,2013-04-04 06:05:00,
2013-04-04 00:06:00,43.9,33.3,29.90,NNW,333,2.0,3.0,66,0.00,,,0.00,VWS V14.01,2013-04-04 06:06:00,
2013-04-04 00:10:00,43.8,33.6,29.90,NW,307,1.0,3.0,67,0.00,,,0.00,VWS V14.01,2013-04-04 06:10:00,
2013-04-04 00:11:00,43.6,33.0,29.90,WSW,240,4.0,5.0,66,0.00,,,0.00,VWS V14.01,2013-04-04 06:11:00,
2013-04-04 00:15:00,42.1,32.3,29.90,WSW,239,2.0,5.0,68,0.00,,,0.00,VWS V14.01,2013-04-04 06:15:00,
2013-04-04 00:16:00,41.8,32.8,29.90,WSW,250,2.0,4.0,70,0.00,,,0.00,VWS V14.01,2013-04-04 06:16:00,
2013-04-04 00:20:00,40.8,32.1,29.90,WSW,248,3.0,4.0,71,0.00,,,0.00,VWS V14.01,2013-04-04 06:20:00,
2013-04-04 00:21:00,40.5,32.2,29.90,West,262,2.0,4.0,72,0.00,,,0.00,VWS V14.01,2013-04-04 06:21:00,
2013-04-04 00:25:00,39.5,31.2,29.90,NE,52,3.0,7.0,72,0.00,,,0.00,VWS V14.01,2013-04-04 06:25:00,
2013-04-04 00:26:00,39.0,31.4,29.90,NE,52,0.0,3.0,74,0.00,,,0.00,VWS V14.01,2013-04-04 06:26:00,
2013-04-04 00:30:00,39.0,31.8,29.90,WSW,255,1.0,3.0,75,0.00,,,0.00,VWS V14.01,2013-04-04 06:30:00,
2013-04-04 00:31:00,39.2,32.0,29.90,SW,217,2.0,2.0,75,0.00,,,0.00,VWS V14.01,2013-04-04 06:31:00,
2013-04-04 00:35:00,39.6,32.0,29.90,WSW,240,1.0,2.0,74,0.00,,,0.00,VWS V14.01,2013-04-04 06:35:00,
2013-04-04 00:36:00,39.7,32.1,29.90,WSW,240,1.0,1.0,74,0.00,,,0.00,VWS V14.01,2013-04-04 06:36:00,
2013-04-04 00:40:00,39.7,32.1,29.90,WSW,253,1.0,2.0,74,0.00,,,0.00,VWS V14.01,2013-04-04 06:40:00,
2013-04-04 00:42:00,39.7,32.1,29.90,WSW,252,1.0,1.0,74,0.00,,,0.00,VWS V14.01,2013-04-04 06:42:00,
2013-04-04 00:45:00,39.8,32.2,29.90,WSW,238,2.0,2.0,74,0.00,,,0.00,VWS V14.01,2013-04-04 06:45:00,
2013-04-04 00:47:00,39.8,32.2,29.90,SW,221,2.0,2.0,74,0.00,,,0.00,VWS V14.01,2013-04-04 06:47:00,
2013-04-04 00:50:00,39.4,31.8,29.90,SW,219,2.0,3.0,74,0.00,,,0.00,VWS V14.01,2013-04-04 06:50:00,
2013-04-04 00:52:00,38.8,31.9,29.89,WSW,238,3.0,3.0,76,0.00,,,0.00,VWS V14.01,2013-04-04 06:52:00,
2013-04-04 00:55:00,38.8,32.2,29.89,WSW,248,2.0,3.0,77,0.00,,,0.00,VWS V14.01,2013-04-04 06:55:00,
2013-04-04 00:57:00,39.1,32.2,29.89,ENE,63,5.0,5.0,76,0.00,,,0.00,VWS V14.01,2013-04-04 06:57:00,
2013-04-04 01:00:00,38.9,32.0,29.89,ENE,75,0.0,7.0,76,0.00,,,0.00,VWS V14.01,2013-04-04 07:00:00,
2013-04-04 01:02:00,39.2,32.0,29.89,WNW,292,0.0,0.0,75,0.00,,,0.00,VWS V14.01,2013-04-04 07:02:00,
2013-04-04 01:05:00,39.5,32.2,29.90,WNW,292,0.0,0.0,75,0.00,,,0.00,VWS V14.01,2013-04-04 07:05:00,
2013-04-04 01:07:00,39.5,31.9,29.90,WNW,292,0.0,0.0,74,0.00,,,0.00,VWS V14.01,2013-04-04 07:07:00,
2013-04-04 01:10:00,39.4,32.2,29.89,WNW,292,0.0,0.0,75,0.00,,,0.00,VWS V14.01,2013-04-04 07:10:00,
2013-04-04 01:12:00,39.3,31.7,29.90,WNW,293,0.0,0.0,74,0.00,,,0.00,VWS V14.01,2013-04-04 07:12:00,
2013-04-04 01:15:00,39.0,31.8,29.90,WNW,292,0.0,0.0,75,0.00,,,0.00,VWS V14.01,2013-04-04 07:15:00,
2013-04-04 01:17:00,39.0,31.8,29.90,ESE,110,0.0,0.0,75,0.00,,,0.00,VWS V14.01,2013-04-04 07:17:00,
2013-04-04 01:20:00,38.8,31.6,29.90,ESE,110,0.0,0.0,75,0.00,,,0.00,VWS V14.01,2013-04-04 07:20:00,
2013-04-04 01:22:00,38.8,31.9,29.90,ESE,110,0.0,0.0,76,0.00,,,0.00,VWS V14.01,2013-04-04 07:22:00,
2013-04-04 01:25:00,38.9,32.0,29.90,ESE,110,0.0,0.0,76,0.00,,,0.00,VWS V14.01,2013-04-04 07:25:00,
2013-04-04 01:27:00,38.9,32.0,29.90,ESE,110,0.0,0.0,76,0.00,,,0.00,VWS V14.01,2013-04-04 07:27:00,
2013-04-04 01:30:00,39.1,32.2,29.90,North,4,0.0,0.0,76,0.00,,,0.00,VWS V14.01,2013-04-04 07:30:00,
2013-04-04 01:32:00,38.9,31.7,29.90,North,352,0.0,0.0,75,0.00,,,0.00,VWS V14.01,2013-04-04 07:32:00,
2013-04-04 01:35:00,38.5,31.3,29.90,North,352,0.0,0.0,75,0.00,,,0.00,VWS V14.01,2013-04-04 07:35:00,
2013-04-04 01:37:00,38.3,31.7,29.90,North,351,0.0,0.0,77,0.00,,,0.00,VWS V14.01,2013-04-04 07:37:00,
2013-04-04 01:40:00,38.3,31.7,29.90,North,352,0.0,0.0,77,0.00,,,0.00,VWS V14.01,2013-04-04 07:40:00,
2013-04-04 01:42:00,38.3,31.7,29.91,North,352,0.0,0.0,77,0.00,,,0.00,VWS V14.01,2013-04-04 07:42:00,
2013-04-04 01:45:00,38.1,31.2,29.90,North,351,0.0,0.0,76,0.00,,,0.00,VWS V14.01,2013-04-04 07:45:00,
2013-04-04 01:47:00,37.6,31.1,29.90,North,351,0.0,0.0,77,0.00,,,0.00,VWS V14.01,2013-04-04 07:47:00,
2013-04-04 01:50:00,37.5,31.6,29.90,North,352,0.0,0.0,79,0.00,,,0.00,VWS V14.01,2013-04-04 07:50:00,
2013-04-04 01:52:00,37.6,31.4,29.90,NNW,327,0.0,0.0,78,0.00,,,0.00,VWS V14.01,2013-04-04 07:52:00,
2013-04-04 01:55:00,37.2,30.7,29.90,WNW,294,1.0,3.0,77,0.00,,,0.00,VWS V14.01,2013-04-04 07:55:00,
2013-04-04 01:57:00,36.7,30.5,29.90,WNW,293,1.0,2.0,78,0.00,,,0.00,VWS V14.01,2013-04-04 07:57:00,
2013-04-04 02:00:00,36.5,30.9,29.90,West,280,1.0,2.0,80,0.00,,,0.00,VWS V14.01,2013-04-04 08:00:00,
2013-04-04 02:02:00,36.4,31.4,29.90,West,279,1.0,1.0,82,0.00,,,0.00,VWS V14.01,2013-04-04 08:02:00,
2013-04-04 02:05:00,36.2,31.2,29.90,West,269,1.0,2.0,82,0.00,,,0.00,VWS V14.01,2013-04-04 08:05:00,
2013-04-04 02:07:00,35.8,31.1,29.90,WSW,246,1.0,2.0,83,0.00,,,0.00,VWS V14.01,2013-04-04 08:07:00,
2013-04-04 02:10:00,35.7,31.4,29.90,WSW,239,0.0,2.0,84,0.00,,,0.00,VWS V14.01,2013-04-04 08:10:00,
2013-04-04 02:12:00,35.7,31.0,29.90,WSW,241,0.0,1.0,83,0.00,,,0.00,VWS V14.01,2013-04-04 08:12:00,
2013-04-04 02:15:00,35.6,31.0,29.90,WSW,241,1.0,1.0,83,0.00,,,0.00,VWS V14.01,2013-04-04 08:15:00,
2013-04-04 02:17:00,35.5,30.9,29.90,West,259,2.0,2.0,83,0.00,,,0.00,VWS V14.01,2013-04-04 08:17:00,
2013-04-04 02:20:00,35.6,31.0,29.90,West,269,0.0,2.0,83,0.00,,,0.00,VWS V14.01,2013-04-04 08:20:00,
2013-04-04 02:22:00,35.5,30.6,29.91,West,271,1.0,1.0,82,0.00,,,0.00,VWS V14.01,2013-04-04 08:22:00,
2013-04-04 02:25:00,35.2,30.6,29.90,West,271,1.0,1.0,83,0.00,,,0.00,VWS V14.01,2013-04-04 08:25:00,
2013-04-04 02:27:00,35.0,31.0,29.90,NW,312,2.0,3.0,85,0.00,,,0.00,VWS V14.01,2013-04-04 08:27:00,
2013-04-04 02:30:00,34.8,30.8,29.90,NW,320,1.0,3.0,85,0.00,,,0.00,VWS V14.01,2013-04-04 08:30:00,
2013-04-04 02:32:00,35.1,31.9,29.90,NW,321,1.0,1.0,88,0.00,,,0.00,VWS V14.01,2013-04-04 08:32:00,
2013-04-04 02:35:00,35.4,32.2,29.90,NW,322,1.0,1.0,88,0.00,,,0.00,VWS V14.01,2013-04-04 08:35:00,
2013-04-04 02:37:00,35.4,31.6,29.90,North,1,2.0,2.0,86,0.00,,,0.00,VWS V14.01,2013-04-04 08:37:00,
2013-04-04 02:40:00,35.3,31.5,29.90,North,1,1.0,2.0,86,0.00,,,0.00,VWS V14.01,2013-04-04 08:40:00,
2013-04-04 02:42:00,35.1,31.3,29.90,North,1,0.0,1.0,86,0.00,,,0.00,VWS V14.01,2013-04-04 08:42:00,
2013-04-04 02:45:00,34.9,31.1,29.90,North,1,0.0,1.0,86,0.00,,,0.00,VWS V14.01,2013-04-04 08:45:00,
2013-04-04 02:47:00,35.0,31.8,29.90,North,1,0.0,0.0,88,0.00,,,0.00,VWS V14.01,2013-04-04 08:47:00,
2013-04-04 02:50:00,35.1,32.2,29.90,North,1,0.0,0.0,89,0.00,,,0.00,VWS V14.01,2013-04-04 08:50:00,
2013-04-04 02:52:00,35.1,31.9,29.90,North,1,0.0,0.0,88,0.00,,,0.00,VWS V14.01,2013-04-04 08:52:00,
2013-04-04 02:55:00,35.0,31.8,29.90,North,1,0.0,0.0,88,0.00,,,0.00,VWS V14.01,2013-04-04 08:55:00,
2013-04-04 02:57:00,34.9,31.7,29.90,West,280,0.0,0.0,88,0.00,,,0.00,VWS V14.01,2013-04-04 08:57:00,
2013-04-04 03:00:00,34.6,31.1,29.90,West,279,0.0,0.0,87,0.00,,,0.00,VWS V14.01,2013-04-04 09:00:00,
2013-04-04 03:02:00,34.6,31.7,29.90,West,269,2.0,2.0,89,0.00,,,0.00,VWS V14.01,2013-04-04 09:02:00,
2013-04-04 03:05:00,34.1,30.4,29.90,West,267,3.0,3.0,86,0.00,,,0.00,VWS V14.01,2013-04-04 09:05:00,
2013-04-04 03:07:00,33.3,29.9,29.90,West,276,1.0,3.0,87,0.00,,,0.00,VWS V14.01,2013-04-04 09:07:00,
2013-04-04 03:10:00,33.3,30.1,29.90,WSW,251,2.0,3.0,88,0.00,,,0.00,VWS V14.01,2013-04-04 09:10:00,
2013-04-04 03:12:00,33.2,30.3,29.89,WSW,248,1.0,2.0,89,0.00,,,0.00,VWS V14.01,2013-04-04 09:12:00,
2013-04-04 03:15:00,33.3,30.4,29.89,WSW,248,1.0,2.0,89,0.00,,,0.00,VWS V14.01,2013-04-04 09:15:00,
2013-04-04 03:17:00,33.3,30.1,29.89,WSW,248,0.0,1.0,88,0.00,,,0.00,VWS V14.01,2013-04-04 09:17:00,
2013-04-04 03:20:00,33.2,30.0,29.89,WSW,248,1.0,1.0,88,0.00,,,0.00,VWS V14.01,2013-04-04 09:20:00,
2013-04-04 03:22:00,33.1,29.9,29.89,WSW,257,1.0,1.0,88,0.00,,,0.00,VWS V14.01,2013-04-04 09:22:00,
2013-04-04 03:25:00,33.0,29.8,29.89,WSW,255,1.0,1.0,88,0.00,,,0.00,VWS V14.01,2013-04-04 09:25:00,
2013-04-04 03:27:00,32.9,30.0,29.90,West,276,1.0,1.0,89,0.00,,,0.00,VWS V14.01,2013-04-04 09:27:00,
2013-04-04 03:30:00,33.1,30.2,29.90,West,277,1.0,2.0,89,0.00,,,0.00,VWS V14.01,2013-04-04 09:30:00,
2013-04-04 03:32:00,33.1,30.2,29.90,West,276,1.0,1.0,89,0.00,,,0.00,VWS V14.01,2013-04-04 09:32:00,
2013-04-04 03:35:00,33.1,30.2,29.90,West,276,1.0,1.0,89,0.00,,,0.00,VWS V14.01,2013-04-04 09:35:00,
2013-04-04 03:37:00,33.3,30.7,29.90,West,276,1.0,1.0,90,0.00,,,0.00,VWS V14.01,2013-04-04 09:37:00,
2013-04-04 03:40:00,33.6,31.0,29.90,West,277,1.0,1.0,90,0.00,,,0.00,VWS V14.01,2013-04-04 09:40:00,
2013-04-04 03:42:00,33.7,30.8,29.90,West,276,0.0,1.0,89,0.00,,,0.00,VWS V14.01,2013-04-04 09:42:00,
2013-04-04 03:45:00,33.7,30.8,29.90,West,277,0.0,1.0,89,0.00,,,0.00,VWS V14.01,2013-04-04 09:45:00,
2013-04-04 03:48:00,33.9,31.3,29.90,West,277,0.0,1.0,90,0.00,,,0.00,VWS V14.01,2013-04-04 09:48:00,
2013-04-04 03:50:00,33.9,31.3,29.90,West,276,0.0,1.0,90,0.00,,,0.00,VWS V14.01,2013-04-04 09:50:00,
2013-04-04 03:53:00,33.5,30.3,29.89,West,277,0.0,0.0,88,0.00,,,0.00,VWS V14.01,2013-04-04 09:53:00,
2013-04-04 03:55:00,33.1,29.7,29.90,West,276,0.0,0.0,87,0.00,,,0.00,VWS V14.01,2013-04-04 09:55:00,
2013-04-04 03:58:00,32.8,29.9,29.89,West,276,0.0,0.0,89,0.00,,,0.00,VWS V14.01,2013-04-04 09:58:00,
2013-04-04 04:00:00,32.9,30.6,29.89,West,277,0.0,0.0,91,0.00,,,0.00,VWS V14.01,2013-04-04 10:00:00,
2013-04-04 04:03:00,33.1,30.8,29.90,West,277,0.0,0.0,91,0.00,,,0.00,VWS V14.01,2013-04-04 10:03:00,
2013-04-04 04:05:00,33.1,30.8,29.90,West,277,0.0,0.0,91,0.00,,,0.00,VWS V14.01,2013-04-04 10:05:00,
2013-04-04 04:08:00,32.9,30.3,29.89,West,276,0.0,0.0,90,0.00,,,0.00,VWS V14.01,2013-04-04 10:08:00,
2013-04-04 04:10:00,32.9,30.6,29.89,West,276,0.0,0.0,91,0.00,,,0.00,VWS V14.01,2013-04-04 10:10:00,
2013-04-04 04:13:00,32.6,30.0,29.89,West,276,0.0,0.0,90,0.00,,,0.00,VWS V14.01,2013-04-04 10:13:00,
2013-04-04 04:15:00,32.4,29.8,29.89,West,276,0.0,0.0,90,0.00,,,0.00,VWS V14.01,2013-04-04 10:15:00,
2013-04-04 04:18:00,32.4,30.1,29.89,West,276,0.0,0.0,91,0.00,,,0.00,VWS V14.01,2013-04-04 10:18:00,
2013-04-04 04:20:00,32.4,30.1,29.89,West,276,0.0,0.0,91,0.00,,,0.00,VWS V14.01,2013-04-04 10:20:00,
2013-04-04 04:23:00,32.7,30.6,29.89,West,276,0.0,0.0,92,0.00,,,0.00,VWS V14.01,2013-04-04 10:23:00,
2013-04-04 04:25:00,32.8,30.7,29.90,West,276,0.0,0.0,92,0.00,,,0.00,VWS V14.01,2013-04-04 10:25:00,
2013-04-04 04:28:00,32.5,29.6,29.89,West,277,0.0,0.0,89,0.00,,,0.00,VWS V14.01,2013-04-04 10:28:00,
2013-04-04 04:30:00,32.2,29.3,29.89,West,276,0.0,0.0,89,0.00,,,0.00,VWS V14.01,2013-04-04 10:30:00,
2013-04-04 04:33:00,31.9,29.3,29.89,West,277,0.0,0.0,90,0.00,,,0.00,VWS V14.01,2013-04-04 10:33:00,
2013-04-04 04:35:00,31.7,29.1,29.90,West,276,0.0,0.0,90,0.00,,,0.00,VWS V14.01,2013-04-04 10:35:00,
2013-04-04 04:38:00,31.4,29.1,29.89,West,277,0.0,0.0,91,0.00,,,0.00,VWS V14.01,2013-04-04 10:38:00,
2013-04-04 04:40:00,31.5,29.5,29.90,West,277,0.0,0.0,92,0.00,,,0.00,VWS V14.01,2013-04-04 10:40:00,
2013-04-04 04:43:00,31.9,30.1,29.90,NW,304,0.0,0.0,93,0.00,,,0.00,VWS V14.01,2013-04-04 10:43:00,
2013-04-04 04:45:00,32.0,30.2,29.90,NW,307,0.0,0.0,93,0.00,,,0.00,VWS V14.01,2013-04-04 10:45:00,
2013-04-04 04:48:00,32.9,31.4,29.90,NW,323,4.0,4.0,94,0.00,,,0.00,VWS V14.01,2013-04-04 10:48:00,
2013-04-04 04:50:00,33.3,32.0,29.90,NW,311,4.0,4.0,95,0.00,,,0.00,VWS V14.01,2013-04-04 10:50:00,
2013-04-04 04:53:00,33.4,31.6,29.90,WNW,302,3.0,4.0,93,0.00,,,0.00,VWS V14.01,2013-04-04 10:53:00,
2013-04-04 04:55:00,33.4,31.3,29.90,West,281,1.0,4.0,92,0.00,,,0.00,VWS V14.01,2013-04-04 10:55:00,
2013-04-04 04:58:00,33.4,31.1,29.90,WNW,285,1.0,2.0,91,0.00,,,0.00,VWS V14.01,2013-04-04 10:58:00,
2013-04-04 05:00:00,33.5,31.2,29.90,WNW,297,2.0,2.0,91,0.00,,,0.00,VWS V14.01,2013-04-04 11:00:00,
2013-04-04 05:03:00,33.8,31.5,29.90,WNW,297,2.0,2.0,91,0.00,,,0.00,VWS V14.01,2013-04-04 11:03:00,
2013-04-04 05:05:00,33.8,31.2,29.90,NW,304,2.0,4.0,90,0.00,,,0.00,VWS V14.01,2013-04-04 11:05:00,
2013-04-04 05:08:00,33.7,31.1,29.90,NW,304,1.0,2.0,90,0.00,,,0.00,VWS V14.01,2013-04-04 11:08:00,
2013-04-04 05:10:00,33.7,31.1,29.90,NW,304,1.0,2.0,90,0.00,,,0.00,VWS V14.01,2013-04-04 11:10:00,
2013-04-04 05:13:00,33.6,31.0,29.90,NW,304,1.0,2.0,90,0.00,,,0.00,VWS V14.01,2013-04-04 11:13:00,
2013-04-04 05:15:00,33.6,31.0,29.90,WNW,302,1.0,2.0,90,0.00,,,0.00,VWS V14.01,2013-04-04 11:15:00,
2013-04-04 05:18:00,32.7,29.5,29.90,WSW,252,1.0,2.0,88,0.00,,,0.00,VWS V14.01,2013-04-04 11:18:00,
2013-04-04 05:20:00,32.4,29.2,29.90,WSW,252,1.0,2.0,88,0.00,,,0.00,VWS V14.01,2013-04-04 11:20:00,
2013-04-04 05:23:00,31.5,28.6,29.89,WSW,250,2.0,2.0,89,0.00,,,0.00,VWS V14.01,2013-04-04 11:23:00,
2013-04-04 05:25:00,31.2,28.3,29.89,WSW,252,1.0,2.0,89,0.00,,,0.00,VWS V14.01,2013-04-04 11:25:00,
2013-04-04 05:29:00,30.3,27.5,29.90,West,262,2.0,3.0,89,0.00,,,0.00,VWS V14.01,2013-04-04 11:29:00,
2013-04-04 05:30:00,30.2,27.4,29.90,West,260,2.0,3.0,89,0.00,,,0.00,VWS V14.01,2013-04-04 11:30:00,
2013-04-04 05:34:00,30.4,28.4,29.89,West,271,2.0,3.0,92,0.00,,,0.00,VWS V14.01,2013-04-04 11:34:00,
2013-04-04 05:35:00,30.5,28.5,29.89,West,269,2.0,3.0,92,0.00,,,0.00,VWS V14.01,2013-04-04 11:35:00,
2013-04-04 05:39:00,30.5,28.2,29.89,West,262,1.0,2.0,91,0.00,,,0.00,VWS V14.01,2013-04-04 11:39:00,
2013-04-04 05:40:00,30.5,28.2,29.89,West,264,1.0,2.0,91,0.00,,,0.00,VWS V14.01,2013-04-04 11:40:00,
2013-04-04 05:44:00,30.5,28.5,29.89,West,280,2.0,2.0,92,0.00,,,0.00,VWS V14.01,2013-04-04 11:44:00,
2013-04-04 05:45:00,30.6,28.6,29.89,West,276,2.0,2.0,92,0.00,,,0.00,VWS V14.01,2013-04-04 11:45:00,
2013-04-04 05:49:00,31.2,29.4,29.89,West,262,2.0,2.0,93,0.00,,,0.00,VWS V14.01,2013-04-04 11:49:00,
2013-04-04 05:50:00,31.2,29.1,29.89,West,270,1.0,2.0,92,0.00,,,0.00,VWS V14.01,2013-04-04 11:50:00,
2013-04-04 05:54:00,31.2,29.1,29.89,West,274,1.0,2.0,92,0.00,,,0.00,VWS V14.01,2013-04-04 11:54:00,
2013-04-04 05:55:00,31.2,29.1,29.89,West,274,1.0,2.0,92,0.00,,,0.00,VWS V14.01,2013-04-04 11:55:00,
2013-04-04 05:59:00,31.1,28.8,29.89,West,274,0.0,1.0,91,0.00,,,0.00,VWS V14.01,2013-04-04 11:59:00,
2013-04-04 06:00:00,31.1,28.8,29.89,West,274,0.0,1.0,91,0.00,,,0.00,VWS V14.01,2013-04-04 12:00:00,
2013-04-04 06:04:00,30.8,28.5,29.89,West,274,0.0,1.0,91,0.00,,,0.00,VWS V14.01,2013-04-04 12:04:00,
2013-04-04 06:05:00,30.8,28.5,29.89,West,274,0.0,1.0,91,0.00,,,0.00,VWS V14.01,2013-04-04 12:05:00,
2013-04-04 06:10:00,30.6,28.3,29.89,West,274,0.0,0.0,91,0.00,,,0.00,VWS V14.01,2013-04-04 12:10:00,
2013-04-04 06:15:00,31.2,29.4,29.89,North,353,0.0,0.0,93,0.00,,,0.00,VWS V14.01,2013-04-04 12:15:00,
2013-04-04 06:20:00,31.4,29.6,29.88,North,351,0.0,0.0,93,0.00,,,0.00,VWS V14.01,2013-04-04 12:20:00,
2013-04-04 06:25:00,31.2,29.4,29.88,North,352,0.0,0.0,93,0.00,,,0.00,VWS V14.01,2013-04-04 12:25:00,
2013-04-04 06:30:00,30.9,29.1,29.88,North,352,0.0,0.0,93,0.00,,,0.00,VWS V14.01,2013-04-04 12:30:00,
2013-04-04 06:35:00,30.8,29.0,29.88,North,352,0.0,0.0,93,0.00,,,0.00,VWS V14.01,2013-04-04 12:35:00,
2013-04-04 06:40:00,30.4,28.6,29.88,North,352,0.0,0.0,93,0.00,,,0.00,VWS V14.01,2013-04-04 12:40:00,
2013-04-04 06:45:00,30.8,29.3,29.88,North,351,0.0,0.0,94,0.00,,,0.00,VWS V14.01,2013-04-04 12:45:00,
2013-04-04 06:50:00,30.9,29.4,29.88,North,352,0.0,0.0,94,0.00,,,0.00,VWS V14.01,2013-04-04 12:50:00,
2013-04-04 06:55:00,30.8,29.3,29.87,North,352,0.0,0.0,94,0.00,,,0.00,VWS V14.01,2013-04-04 12:55:00,
2013-04-04 07:00:00,30.7,29.2,29.87,North,352,0.0,0.0,94,0.00,,,0.00,VWS V14.01,2013-04-04 13:00:00,
2013-04-04 07:05:00,30.9,29.4,29.87,North,351,0.0,0.0,94,0.00,,,0.00,VWS V14.01,2013-04-04 13:05:00,
2013-04-04 07:10:00,31.1,29.8,29.87,North,351,0.0,0.0,95,0.00,,,0.00,VWS V14.01,2013-04-04 13:10:00,
2013-04-04 07:15:00,31.3,30.0,29.87,North,352,0.0,0.0,95,0.00,,,0.00,VWS V14.01,2013-04-04 13:15:00,
2013-04-04 07:20:00,31.1,29.6,29.87,WNW,300,0.0,0.0,94,0.00,,,0.00,VWS V14.01,2013-04-04 13:20:00,
2013-04-04 07:25:00,30.9,29.4,29.87,WNW,299,0.0,0.0,94,0.00,,,0.00,VWS V14.01,2013-04-04 13:25:00,
2013-04-04 07:30:00,30.5,28.7,29.87,WNW,299,0.0,0.0,93,0.00,,,0.00,VWS V14.01,2013-04-04 13:30:00,
2013-04-04 07:35:00,30.3,28.8,29.87,WNW,299,0.0,0.0,94,0.00,,,0.00,VWS V14.01,2013-04-04 13:35:00,
2013-04-04 07:40:00,30.4,28.9,29.87,WNW,299,0.0,0.0,94,0.00,,,0.00,VWS V14.01,2013-04-04 13:40:00,
2013-04-04 07:45:00,30.9,29.6,29.87,WNW,299,0.0,0.0,95,0.00,,,0.00,VWS V14.01,2013-04-04 13:45:00,
2013-04-04 07:50:00,31.2,29.9,29.87,WNW,299,0.0,0.0,95,0.00,,,0.00,VWS V14.01,2013-04-04 13:50:00,
2013-04-04 07:55:00,30.9,29.1,29.87,WNW,300,0.0,0.0,93,0.00,,,0.00,VWS V14.01,2013-04-04 13:55:00,
2013-04-04 08:00:00,31.1,29.6,29.87,WNW,299,0.0,0.0,94,0.00,,,0.00,VWS V14.01,2013-04-04 14:00:00,
2013-04-04 08:05:00,31.6,30.1,29.86,WNW,299,0.0,0.0,94,0.00,,,0.00,VWS V14.01,2013-04-04 14:05:00,
2013-04-04 08:10:00,32.0,30.5,29.86,WNW,300,0.0,0.0,94,0.00,,,0.00,VWS V14.01,2013-04-04 14:10:00,
2013-04-04 08:15:00,32.5,31.0,29.86,WNW,299,0.0,0.0,94,0.00,,,0.00,VWS V14.01,2013-04-04 14:15:00,
2013-04-04 08:20:00,33.1,31.6,29.86,WNW,300,0.0,0.0,94,0.00,,,0.00,VWS V14.01,2013-04-04 14:20:00,
2013-04-04 08:25:00,33.5,32.0,29.86,WNW,299,0.0,0.0,94,0.00,,,0.00,VWS V14.01,2013-04-04 14:25:00,
2013-04-04 08:30:00,33.9,32.1,29.86,WSW,257,0.0,0.0,93,0.00,,,0.00,VWS V14.01,2013-04-04 14:30:00,
2013-04-04 08:35:00,34.5,32.7,29.86,West,281,1.0,2.0,93,0.00,,,0.00,VWS V14.01,2013-04-04 14:35:00,
2013-04-04 08:40:00,35.3,33.2,29.86,NW,308,2.0,3.0,92,0.00,,,0.00,VWS V14.01,2013-04-04 14:40:00,
2013-04-04 08:45:00,36.1,33.7,29.86,NNW,330,1.0,2.0,91,0.00,,,0.00,VWS V14.01,2013-04-04 14:45:00,
2013-04-04 08:50:00,36.9,34.0,29.86,North,352,2.0,2.0,89,0.00,,,0.00,VWS V14.01,2013-04-04 14:50:00,
2013-04-04 08:55:00,37.5,34.0,29.86,NNW,346,4.0,4.0,87,0.00,,,0.00,VWS V14.01,2013-04-04 14:55:00,
2013-04-04 08:56:00,37.6,34.1,29.86,NW,309,4.0,4.0,87,0.00,,,0.00,VWS V14.01,2013-04-04 14:56:00,
2013-04-04 09:00:00,37.9,34.1,29.86,NW,322,4.0,5.0,86,0.00,,,0.00,VWS V14.01,2013-04-04 15:00:00,
2013-04-04 09:01:00,38.1,34.3,29.86,NW,320,5.0,5.0,86,0.00,,,0.00,VWS V14.01,2013-04-04 15:01:00,
2013-04-04 09:05:00,38.4,34.3,29.85,NNW,338,3.0,5.0,85,0.00,,,0.00,VWS V14.01,2013-04-04 15:05:00,
2013-04-04 09:06:00,38.5,34.4,29.85,NNW,328,3.0,4.0,85,0.00,,,0.00,VWS V14.01,2013-04-04 15:06:00,
2013-04-04 09:10:00,39.0,34.6,29.85,NW,306,4.0,5.0,84,0.00,,,0.00,VWS V14.01,2013-04-04 15:10:00,
2013-04-04 09:11:00,39.1,34.7,29.85,NW,312,5.0,5.0,84,0.00,,,0.00,VWS V14.01,2013-04-04 15:11:00,
2013-04-04 09:15:00,39.5,34.8,29.85,NW,318,4.0,6.0,83,0.00,,,0.00,VWS V14.01,2013-04-04 15:15:00,
2013-04-04 09:16:00,39.6,34.6,29.85,NW,313,5.0,6.0,82,0.00,,,0.00,VWS V14.01,2013-04-04 15:16:00,
2013-04-04 09:20:00,39.9,34.9,29.85,NW,312,6.0,6.0,82,0.00,,,0.00,VWS V14.01,2013-04-04 15:20:00,
2013-04-04 09:22:00,40.1,35.1,29.85,NW,316,4.0,6.0,82,0.00,,,0.00,VWS V14.01,2013-04-04 15:22:00,
2013-04-04 09:25:00,40.4,35.0,29.85,WNW,297,4.0,6.0,81,0.00,,,0.00,VWS V14.01,2013-04-04 15:25:00,
2013-04-04 09:27:00,40.6,35.2,29.85,NW,305,3.0,5.0,81,0.00,,,0.00,VWS V14.01,2013-04-04 15:27:00,
2013-04-04 09:30:00,41.0,35.3,29.85,NW,318,4.0,6.0,80,0.00,,,0.00,VWS V14.01,2013-04-04 15:30:00,
2013-04-04 09:32:00,41.3,35.3,29.85,NW,314,5.0,7.0,79,0.00,,,0.00,VWS V14.01,2013-04-04 15:32:00,
2013-04-04 09:35:00,41.5,35.2,29.84,NW,313,6.0,7.0,78,0.00,,,0.00,VWS V14.01,2013-04-04 15:35:00,
2013-04-04 09:37:00,41.7,35.0,29.84,NW,311,5.0,6.0,77,0.00,,,0.00,VWS V14.01,2013-04-04 15:37:00,
2013-04-04 09:40:00,41.9,34.9,29.84,North,352,3.0,7.0,76,0.00,,,0.00,VWS V14.01,2013-04-04 15:40:00,
2013-04-04 09:42:00,42.1,35.4,29.84,NNW,346,3.0,5.0,77,0.00,,,0.00,VWS V14.01,2013-04-04 15:42:00,
2013-04-04 09:45:00,42.5,35.2,29.84,NW,319,4.0,6.0,75,0.00,,,0.00,VWS V14.01,2013-04-04 15:45:00,
2013-04-04 09:47:00,42.7,35.7,29.84,NW,314,5.0,5.0,76,0.00,,,0.00,VWS V14.01,2013-04-04 15:47:00,
2013-04-04 09:50:00,42.7,35.0,29.84,WNW,302,3.0,6.0,74,0.00,,,0.00,VWS V14.01,2013-04-04 15:50:00,
2013-04-04 09:52:00,42.9,35.2,29.84,NW,312,5.0,6.0,74,0.00,,,0.00,VWS V14.01,2013-04-04 15:52:00,
2013-04-04 09:55:00,43.0,35.3,29.84,NW,322,4.0,6.0,74,0.00,,,0.00,VWS V14.01,2013-04-04 15:55:00,
2013-04-04 09:57:00,43.3,35.9,29.84,NW,323,4.0,6.0,75,0.00,,,0.00,VWS V14.01,2013-04-04 15:57:00,
2013-04-04 10:00:00,43.6,35.9,29.84,NW,318,3.0,6.0,74,0.00,,,0.00,VWS V14.01,2013-04-04 16:00:00,
2013-04-04 10:02:00,43.9,36.2,29.84,North,359,5.0,6.0,74,0.00,,,0.00,VWS V14.01,2013-04-04 16:02:00,
2013-04-04 10:05:00,44.2,35.8,29.83,NNW,333,4.0,6.0,72,0.00,,,0.00,VWS V14.01,2013-04-04 16:05:00,
2013-04-04 10:07:00,44.4,36.0,29.83,NNW,345,5.0,7.0,72,0.00,,,0.00,VWS V14.01,2013-04-04 16:07:00,
2013-04-04 10:10:00,44.4,35.6,29.83,NNW,334,4.0,7.0,71,0.00,,,0.00,VWS V14.01,2013-04-04 16:10:00,
2013-04-04 10:12:00,44.5,35.7,29.83,NNW,346,5.0,6.0,71,0.00,,,0.00,VWS V14.01,2013-04-04 16:12:00,
2013-04-04 10:15:00,44.6,35.4,29.83,NNW,342,4.0,6.0,70,0.00,,,0.00,VWS V14.01,2013-04-04 16:15:00,
2013-04-04 10:17:00,44.8,36.0,29.83,NNW,345,3.0,5.0,71,0.00,,,0.00,VWS V14.01,2013-04-04 16:17:00,
2013-04-04 10:20:00,45.0,35.8,29.83,North,356,3.0,5.0,70,0.00,,,0.00,VWS V14.01,2013-04-04 16:20:00,
2013-04-04 10:22:00,45.1,35.5,29.83,NW,319,3.0,4.0,69,0.00,,,0.00,VWS V14.01,2013-04-04 16:22:00,
2013-04-04 10:25:00,45.2,36.0,29.83,North,355,4.0,6.0,70,0.00,,,0.00,VWS V14.01,2013-04-04 16:25:00,
2013-04-04 10:28:00,45.3,36.1,29.83,NW,314,4.0,5.0,70,0.00,,,0.00,VWS V14.01,2013-04-04 16:28:00,
2013-04-04 10:30:00,45.4,35.8,29.83,North,1,4.0,5.0,69,0.00,,,0.00,VWS V14.01,2013-04-04 16:30:00,
2013-04-04 10:33:00,45.7,36.5,29.83,North,1,4.0,5.0,70,0.00,,,0.00,VWS V14.01,2013-04-04 16:33:00,
2013-04-04 10:35:00,45.9,36.0,29.83,NNE,19,5.0,6.0,68,0.00,,,0.00,VWS V14.01,2013-04-04 16:35:00,
2013-04-04 10:38:00,46.1,36.1,29.83,NNE,12,6.0,7.0,68,0.00,,,0.00,VWS V14.01,2013-04-04 16:38:00,
2013-04-04 10:40:00,46.3,36.3,29.83,NNW,340,3.0,7.0,68,0.00,,,0.00,VWS V14.01,2013-04-04 16:40:00,
2013-04-04 10:43:00,46.6,36.6,29.83,NNE,20,5.0,7.0,68,0.00,,,0.00,VWS V14.01,2013-04-04 16:43:00,
2013-04-04 10:45:00,46.7,36.3,29.83,NNE,28,5.0,7.0,67,0.00,,,0.00,VWS V14.01,2013-04-04 16:45:00,
2013-04-04 10:48:00,46.6,35.9,29.83,NNE,17,2.0,5.0,66,0.00,,,0.00,VWS V14.01,2013-04-04 16:48:00,
2013-04-04 10:50:00,46.6,35.9,29.83,NNE,27,2.0,5.0,66,0.00,,,0.00,VWS V14.01,2013-04-04 16:50:00,
2013-04-04 10:53:00,46.7,36.0,29.83,NW,325,3.0,4.0,66,0.00,,,0.00,VWS V14.01,2013-04-04 16:53:00,
2013-04-04 10:55:00,46.9,36.2,29.83,NNW,331,2.0,4.0,66,0.00,,,0.00,VWS V14.01,2013-04-04 16:55:00,
2013-04-04 10:58:00,46.9,35.8,29.82,NNE,15,4.0,5.0,65,0.00,,,0.00,VWS V14.01,2013-04-04 16:58:00,
2013-04-04 11:00:00,46.8,36.1,29.82,NE,48,3.0,5.0,66,0.00,,,0.00,VWS V14.01,2013-04-04 17:00:00,
2013-04-04 11:03:00,46.9,36.2,29.82,NE,37,2.0,4.0,66,0.00,,,0.00,VWS V14.01,2013-04-04 17:03:00,
2013-04-04 11:05:00,46.9,36.2,29.82,NNE,13,4.0,4.0,66,0.00,,,0.00,VWS V14.01,2013-04-04 17:05:00,
2013-04-04 11:08:00,47.2,36.4,29.82,NNE,25,2.0,4.0,66,0.00,,,0.00,VWS V14.01,2013-04-04 17:08:00,
2013-04-04 11:10:00,47.3,36.2,29.82,NNW,333,1.0,4.0,65,0.00,,,0.00,VWS V14.01,2013-04-04 17:10:00,
2013-04-04 11:13:00,47.5,36.3,29.82,North,360,2.0,5.0,65,0.00,,,0.00,VWS V14.01,2013-04-04 17:13:00,
2013-04-04 11:15:00,47.6,36.8,29.82,NNE,21,2.0,5.0,66,0.00,,,0.00,VWS V14.01,2013-04-04 17:15:00,
2013-04-04 11:18:00,47.7,36.5,29.82,NNE,30,0.0,2.0,65,0.00,,,0.00,VWS V14.01,2013-04-04 17:18:00,
2013-04-04 11:20:00,47.9,36.7,29.82,West,281,1.0,4.0,65,0.00,,,0.00,VWS V14.01,2013-04-04 17:20:00,
2013-04-04 11:23:00,48.2,36.6,29.82,NNE,15,2.0,3.0,64,0.00,,,0.00,VWS V14.01,2013-04-04 17:23:00,
2013-04-04 11:25:00,48.3,36.3,29.82,North,350,1.0,3.0,63,0.00,,,0.00,VWS V14.01,2013-04-04 17:25:00,
2013-04-04 11:28:00,48.5,36.5,29.81,North,4,0.0,2.0,63,0.00,,,0.00,VWS V14.01,2013-04-04 17:28:00,
2013-04-04 11:30:00,48.7,36.7,29.81,NW,316,0.0,2.0,63,0.00,,,0.00,VWS V14.01,2013-04-04 17:30:00,
2013-04-04 11:33:00,49.5,37.4,29.81,WNW,302,3.0,4.0,63,0.00,,,0.00,VWS V14.01,2013-04-04 17:33:00,
2013-04-04 11:35:00,49.6,37.1,29.81,NW,308,2.0,4.0,62,0.00,,,0.00,VWS V14.01,2013-04-04 17:35:00,
2013-04-04 11:38:00,49.6,36.7,29.81,WNW,284,2.0,3.0,61,0.00,,,0.00,VWS V14.01,2013-04-04 17:38:00,
2013-04-04 11:40:00,49.6,37.1,29.81,WSW,257,2.0,3.0,62,0.00,,,0.00,VWS V14.01,2013-04-04 17:40:00,
2013-04-04 11:43:00,49.7,37.2,29.80,West,260,0.0,2.0,62,0.00,,,0.00,VWS V14.01,2013-04-04 17:43:00,
2013-04-04 11:45:00,50.0,37.5,29.80,NW,326,0.0,2.0,62,0.00,,,0.00,VWS V14.01,2013-04-04 17:45:00,
2013-04-04 11:48:00,50.2,37.3,29.80,West,270,1.0,1.0,61,0.00,,,0.00,VWS V14.01,2013-04-04 17:48:00,
2013-04-04 11:50:00,50.2,37.3,29.80,WNW,286,0.0,2.0,61,0.00,,,0.00,VWS V14.01,2013-04-04 17:50:00,
2013-04-04 11:53:00,50.8,37.4,29.80,SSE,168,0.0,1.0,60,0.00,,,0.00,VWS V14.01,2013-04-04 17:53:00,
2013-04-04 11:55:00,51.1,38.1,29.80,SSE,167,1.0,1.0,61,0.00,,,0.00,VWS V14.01,2013-04-04 17:55:00,
2013-04-04 11:58:00,51.6,38.2,29.80,WNW,298,1.0,3.0,60,0.00,,,0.00,VWS V14.01,2013-04-04 17:58:00,
2013-04-04 12:00:00,51.7,37.8,29.80,WNW,302,1.0,3.0,59,0.00,,,0.00,VWS V14.01,2013-04-04 18:00:00,
2013-04-04 12:03:00,51.5,37.2,29.79,WNW,303,2.0,3.0,58,0.00,,,0.00,VWS V14.01,2013-04-04 18:03:00,
2013-04-04 12:05:00,51.4,37.6,29.79,West,280,1.0,3.0,59,0.00,,,0.00,VWS V14.01,2013-04-04 18:05:00,
2013-04-04 12:08:00,51.4,37.6,29.79,WNW,287,1.0,3.0,59,0.00,,,0.00,VWS V14.01,2013-04-04 18:08:00,
2013-04-04 12:10:00,51.4,37.6,29.80,West,281,3.0,3.0,59,0.00,,,0.00,VWS V14.01,2013-04-04 18:10:00,
2013-04-04 12:13:00,51.5,37.2,29.79,WSW,256,1.0,3.0,58,0.00,,,0.00,VWS V14.01,2013-04-04 18:13:00,
2013-04-04 12:15:00,51.6,37.3,29.79,SW,226,1.0,3.0,58,0.00,,,0.00,VWS V14.01,2013-04-04 18:15:00,
2013-04-04 12:18:00,51.9,37.2,29.79,NW,309,0.0,3.0,57,0.00,,,0.00,VWS V14.01,2013-04-04 18:18:00,
2013-04-04 12:20:00,52.1,37.8,29.79,NW,312,1.0,3.0,58,0.00,,,0.00,VWS V14.01,2013-04-04 18:20:00,
2013-04-04 12:23:00,52.4,36.7,29.79,North,355,1.0,4.0,55,0.00,,,0.00,VWS V14.01,2013-04-04 18:23:00,
2013-04-04 12:25:00,52.5,37.3,29.78,NNE,24,2.0,4.0,56,0.00,,,0.00,VWS V14.01,2013-04-04 18:25:00,
2013-04-04 12:28:00,52.8,38.0,29.78,WNW,295,2.0,4.0,57,0.00,,,0.00,VWS V14.01,2013-04-04 18:28:00,
2013-04-04 12:30:00,52.9,37.7,29.78,WSW,249,4.0,4.0,56,0.00,,,0.00,VWS V14.01,2013-04-04 18:30:00,
2013-04-04 12:33:00,52.9,37.7,29.78,NW,321,0.0,4.0,56,0.00,,,0.00,VWS V14.01,2013-04-04 18:33:00,
2013-04-04 12:35:00,53.0,37.7,29.78,NW,321,0.0,4.0,56,0.00,,,0.00,VWS V14.01,2013-04-04 18:35:00,
2013-04-04 12:38:00,53.6,38.8,29.78,SSE,156,0.0,2.0,57,0.00,,,0.00,VWS V14.01,2013-04-04 18:38:00,
2013-04-04 12:40:00,53.8,37.6,29.78,NNE,27,2.0,3.0,54,0.00,,,0.00,VWS V14.01,2013-04-04 18:40:00,
2013-04-04 12:43:00,53.8,37.6,29.77,ESE,113,0.0,2.0,54,0.00,,,0.00,VWS V14.01,2013-04-04 18:43:00,
2013-04-04 12:45:00,53.8,38.5,29.77,South,169,0.0,2.0,56,0.00,,,0.00,VWS V14.01,2013-04-04 18:45:00,
2013-04-04 12:48:00,54.0,38.2,29.77,SE,127,2.0,3.0,55,0.00,,,0.00,VWS V14.01,2013-04-04 18:48:00,
2013-04-04 12:50:00,53.9,37.7,29.77,SE,146,0.0,3.0,54,0.00,,,0.00,VWS V14.01,2013-04-04 18:50:00,
2013-04-04 12:53:00,54.1,38.3,29.77,NW,316,2.0,3.0,55,0.00,,,0.00,VWS V14.01,2013-04-04 18:53:00,
2013-04-04 12:55:00,54.1,38.3,29.77,NNW,333,0.0,3.0,55,0.00,,,0.00,VWS V14.01,2013-04-04 18:55:00,
2013-04-04 12:58:00,54.2,37.9,29.77,NNW,335,3.0,3.0,54,0.00,,,0.00,VWS V14.01,2013-04-04 18:58:00,
2013-04-04 13:00:00,54.2,37.9,29.76,North,359,2.0,3.0,54,0.00,,,0.00,VWS V14.01,2013-04-04 19:00:00,
2013-04-04 13:03:00,54.2,38.4,29.76,WNW,287,2.0,4.0,55,0.00,,,0.00,VWS V14.01,2013-04-04 19:03:00,
2013-04-04 13:05:00,54.2,38.4,29.76,WNW,283,1.0,4.0,55,0.00,,,0.00,VWS V14.01,2013-04-04 19:05:00,
2013-04-04 13:08:00,54.3,38.0,29.76,West,261,2.0,3.0,54,0.00,,,0.00,VWS V14.01,2013-04-04 19:08:00,
2013-04-04 13:10:00,54.3,38.5,29.76,NW,321,3.0,4.0,55,0.00,,,0.00,VWS V14.01,2013-04-04 19:10:00,
2013-04-04 13:13:00,54.2,38.4,29.76,West,266,1.0,3.0,55,0.00,,,0.00,VWS V14.01,2013-04-04 19:13:00,
2013-04-04 13:15:00,54.2,38.4,29.75,WNW,301,1.0,3.0,55,0.00,,,0.00,VWS V14.01,2013-04-04 19:15:00,
2013-04-04 13:18:00,54.3,38.0,29.75,North,9,0.0,2.0,54,0.00,,,0.00,VWS V14.01,2013-04-04 19:18:00,
2013-04-04 13:20:00,54.3,38.5,29.75,North,8,0.0,2.0,55,0.00,,,0.00,VWS V14.01,2013-04-04 19:20:00,
2013-04-04 13:23:00,54.7,38.4,29.75,WSW,249,0.0,2.0,54,0.00,,,0.00,VWS V14.01,2013-04-04 19:23:00,
2013-04-04 13:25:00,54.7,38.4,29.75,WSW,238,0.0,2.0,54,0.00,,,0.00,VWS V14.01,2013-04-04 19:25:00,
2013-04-04 13:28:00,54.7,38.4,29.75,WSW,252,2.0,3.0,54,0.00,,,0.00,VWS V14.01,2013-04-04 19:28:00,
2013-04-04 13:30:00,54.7,38.4,29.75,WNW,289,1.0,3.0,54,0.00,,,0.00,VWS V14.01,2013-04-04 19:30:00,
2013-04-04 13:33:00,54.7,38.9,29.75,West,271,1.0,3.0,55,0.00,,,0.00,VWS V14.01,2013-04-04 19:33:00,
2013-04-04 13:35:00,54.8,39.0,29.75,NW,307,2.0,3.0,55,0.00,,,0.00,VWS V14.01,2013-04-04 19:35:00,
2013-04-04 13:38:00,54.8,38.5,29.74,NNW,328,2.0,4.0,54,0.00,,,0.00,VWS V14.01,2013-04-04 19:38:00,
2013-04-04 13:40:00,54.7,37.9,29.74,NW,326,1.0,4.0,53,0.00,,,0.00,VWS V14.01,2013-04-04 19:40:00,
2013-04-04 13:43:00,54.5,38.2,29.74,NW,308,0.0,5.0,54,0.00,,,0.00,VWS V14.01,2013-04-04 19:43:00,
2013-04-04 13:45:00,54.6,38.3,29.74,West,278,0.0,5.0,54,0.00,,,0.00,VWS V14.01,2013-04-04 19:45:00,
2013-04-04 13:48:00,54.9,39.0,29.73,NNW,348,0.0,2.0,55,0.00,,,0.00,VWS V14.01,2013-04-04 19:48:00,
2013-04-04 13:50:00,55.1,38.8,29.73,North,350,0.0,2.0,54,0.00,,,0.00,VWS V14.01,2013-04-04 19:50:00,
2013-04-04 13:54:00,55.4,38.6,29.73,West,261,2.0,2.0,53,0.00,,,0.00,VWS V14.01,2013-04-04 19:54:00,
2013-04-04 13:55:00,55.4,38.6,29.73,WSW,250,2.0,3.0,53,0.00,,,0.00,VWS V14.01,2013-04-04 19:55:00,
2013-04-04 13:59:00,55.5,38.2,29.73,West,280,0.0,3.0,52,0.00,,,0.00,VWS V14.01,2013-04-04 19:59:00,
2013-04-04 14:00:00,55.5,38.7,29.73,WNW,296,1.0,3.0,53,0.00,,,0.00,VWS V14.01,2013-04-04 20:00:00,
2013-04-04 14:04:00,56.1,38.7,29.73,SW,236,1.0,3.0,52,0.00,,,0.00,VWS V14.01,2013-04-04 20:04:00,
2013-04-04 14:05:00,56.1,38.7,29.73,West,260,1.0,3.0,52,0.00,,,0.00,VWS V14.01,2013-04-04 20:05:00,
2013-04-04 14:09:00,56.3,38.4,29.73,SSW,212,0.0,6.0,51,0.00,,,0.00,VWS V14.01,2013-04-04 20:09:00,
2013-04-04 14:10:00,56.3,38.4,29.73,SSW,211,0.0,6.0,51,0.00,,,0.00,VWS V14.01,2013-04-04 20:10:00,
2013-04-04 14:14:00,56.6,38.7,29.72,West,267,0.0,3.0,51,0.00,,,0.00,VWS V14.01,2013-04-04 20:14:00,
2013-04-04 14:15:00,56.6,38.7,29.72,SW,218,1.0,3.0,51,0.00,,,0.00,VWS V14.01,2013-04-04 20:15:00,
2013-04-04 14:19:00,57.0,38.6,29.72,SW,217,1.0,2.0,50,0.00,,,0.00,VWS V14.01,2013-04-04 20:19:00,
2013-04-04 14:20:00,57.0,39.1,29.72,SW,217,1.0,2.0,51,0.00,,,0.00,VWS V14.01,2013-04-04 20:20:00,
2013-04-04 14:24:00,57.6,39.6,29.72,WNW,290,1.0,3.0,51,0.00,,,0.00,VWS V14.01,2013-04-04 20:24:00,
2013-04-04 14:25:00,57.6,39.6,29.72,WNW,290,1.0,3.0,51,0.00,,,0.00,VWS V14.01,2013-04-04 20:25:00,
2013-04-04 14:29:00,57.4,38.4,29.71,NNE,15,0.0,3.0,49,0.00,,,0.00,VWS V14.01,2013-04-04 20:29:00,
2013-04-04 14:30:00,57.4,38.4,29.71,NNE,16,0.0,3.0,49,0.00,,,0.00,VWS V14.01,2013-04-04 20:30:00,
2013-04-04 14:34:00,57.2,38.2,29.71,SW,232,1.0,3.0,49,0.00,,,0.00,VWS V14.01,2013-04-04 20:34:00,
2013-04-04 14:35:00,57.2,38.2,29.71,WSW,238,1.0,3.0,49,0.00,,,0.00,VWS V14.01,2013-04-04 20:35:00,
2013-04-04 14:39:00,57.4,37.9,29.71,ENE,65,2.0,3.0,48,0.00,,,0.00,VWS V14.01,2013-04-04 20:39:00,
2013-04-04 14:40:00,57.4,37.9,29.71,ENE,65,2.0,3.0,48,0.00,,,0.00,VWS V14.01,2013-04-04 20:40:00,
2013-04-04 14:44:00,57.3,38.8,29.70,East,87,2.0,3.0,50,0.00,,,0.00,VWS V14.01,2013-04-04 20:44:00,
2013-04-04 14:45:00,57.3,38.8,29.70,East,87,2.0,3.0,50,0.00,,,0.00,VWS V14.01,2013-04-04 20:45:00,
2013-04-04 14:49:00,57.5,39.0,29.70,West,278,0.0,5.0,50,0.00,,,0.00,VWS V14.01,2013-04-04 20:49:00,
2013-04-04 14:50:00,57.5,39.0,29.70,West,278,0.0,5.0,50,0.00,,,0.00,VWS V14.01,2013-04-04 20:50:00,
2013-04-04 14:54:00,57.5,38.5,29.70,WNW,302,3.0,3.0,49,0.00,,,0.00,VWS V14.01,2013-04-04 20:54:00,
2013-04-04 14:55:00,57.5,38.5,29.70,WNW,302,3.0,3.0,49,0.00,,,0.00,VWS V14.01,2013-04-04 20:55:00,
2013-04-04 14:59:00,57.1,38.1,29.70,NW,314,3.0,4.0,49,0.00,,,0.00,VWS V14.01,2013-04-04 20:59:00,
2013-04-04 15:00:00,57.1,38.1,29.70,NW,314,3.0,4.0,49,0.00,,,0.00,VWS V14.01,2013-04-04 21:00:00,
2013-04-04 15:04:00,57.0,38.0,29.69,WNW,298,2.0,4.0,49,0.00,,,0.00,VWS V14.01,2013-04-04 21:04:00,
2013-04-04 15:05:00,57.0,38.0,29.69,WNW,298,2.0,4.0,49,0.00,,,0.00,VWS V14.01,2013-04-04 21:05:00,
2013-04-04 15:09:00,57.3,38.8,29.69,SW,233,1.0,1.0,50,0.00,,,0.00,VWS V14.01,2013-04-04 21:09:00,
2013-04-04 15:10:00,57.2,38.8,29.69,SW,233,1.0,2.0,50,0.00,,,0.00,VWS V14.01,2013-04-04 21:10:00,
2013-04-04 15:15:00,57.6,38.6,29.69,SW,236,0.0,0.0,49,0.00,,,0.00,VWS V14.01,2013-04-04 21:15:00,
2013-04-04 15:20:00,58.0,37.9,29.68,NW,318,0.0,0.0,47,0.00,,,0.00,VWS V14.01,2013-04-04 21:20:00,
2013-04-04 15:25:00,57.9,37.3,29.68,WNW,301,2.0,2.0,46,0.00,,,0.00,VWS V14.01,2013-04-04 21:25:00,
2013-04-04 15:30:00,57.6,37.5,29.68,NW,326,0.0,0.0,47,0.00,,,0.00,VWS V14.01,2013-04-04 21:30:00,
2013-04-04 15:35:00,57.8,37.2,29.68,West,262,3.0,3.0,46,0.00,,,0.00,VWS V14.01,2013-04-04 21:35:00,
2013-04-04 15:40:00,57.9,37.3,29.68,SSW,211,1.0,1.0,46,0.00,,,0.00,VWS V14.01,2013-04-04 21:40:00,
2013-04-04 15:45:00,58.2,37.0,29.67,SW,217,1.0,1.0,45,0.00,,,0.00,VWS V14.01,2013-04-04 21:45:00,
2013-04-04 15:50:00,58.7,36.9,29.67,SW,231,3.0,3.0,44,0.00,,,0.00,VWS V14.01,2013-04-04 21:50:00,
2013-04-04 15:55:00,58.9,35.9,29.67,SSE,160,2.0,4.0,42,0.00,,,0.00,VWS V14.01,2013-04-04 21:55:00,
2013-04-04 16:00:00,58.8,35.8,29.67,East,98,2.0,2.0,42,0.00,,,0.00,VWS V14.01,2013-04-04 22:00:00,
2013-04-04 16:05:00,58.8,36.4,29.66,ENE,62,0.0,0.0,43,0.00,,,0.00,VWS V14.01,2013-04-04 22:05:00,
2013-04-04 16:10:00,58.8,36.4,29.66,East,94,1.0,1.0,43,0.00,,,0.00,VWS V14.01,2013-04-04 22:10:00,
2013-04-04 16:15:00,59.2,36.7,29.66,SE,131,0.0,1.0,43,0.00,,,0.00,VWS V14.01,2013-04-04 22:15:00,
2013-04-04 16:20:00,59.4,35.7,29.66,South,184,1.0,3.0,41,0.00,,,0.00,VWS V14.01,2013-04-04 22:20:00,
2013-04-04 16:25:00,59.6,35.9,29.66,WSW,242,1.0,1.0,41,0.00,,,0.00,VWS V14.01,2013-04-04 22:25:00,
2013-04-04 16:30:00,59.6,36.5,29.66,East,81,2.0,2.0,42,0.00,,,0.00,VWS V14.01,2013-04-04 22:30:00,
2013-04-04 16:35:00,59.3,36.2,29.65,NE,46,2.0,3.0,42,0.00,,,0.00,VWS V14.01,2013-04-04 22:35:00,
2013-04-04 16:40:00,59.4,35.7,29.66,SSE,148,2.0,4.0,41,0.00,,,0.00,VWS V14.01,2013-04-04 22:40:00,
2013-04-04 16:45:00,59.4,36.9,29.65,SSE,166,1.0,1.0,43,0.00,,,0.00,VWS V14.01,2013-04-04 22:45:00,
2013-04-04 16:50:00,59.6,37.1,29.65,South,173,3.0,4.0,43,0.00,,,0.00,VWS V14.01,2013-04-04 22:50:00,
2013-04-04 16:55:00,59.5,36.4,29.65,SSE,155,2.0,3.0,42,0.00,,,0.00,VWS V14.01,2013-04-04 22:55:00,
2013-04-04 17:00:00,59.4,36.9,29.65,SSE,150,6.0,7.0,43,0.00,,,0.00,VWS V14.01,2013-04-04 23:00:00,
2013-04-04 17:05:00,57.2,38.2,29.66,SE,129,10.0,12.0,49,0.00,,,0.00,VWS V14.01,2013-04-04 23:05:00,
2013-04-04 17:10:00,53.9,37.7,29.66,SSE,148,8.0,11.0,54,0.00,,,0.00,VWS V14.01,2013-04-04 23:10:00,
2013-04-04 17:15:00,52.5,37.3,29.66,SSE,149,6.0,7.0,56,0.00,,,0.00,VWS V14.01,2013-04-04 23:15:00,
2013-04-04 17:20:00,52.2,37.9,29.66,SSW,212,3.0,4.0,58,0.00,,,0.00,VWS V14.01,2013-04-04 23:20:00,
2013-04-04 17:25:00,52.1,38.7,29.66,SSE,165,4.0,5.0,60,0.00,,,0.00,VWS V14.01,2013-04-04 23:25:00,
2013-04-04 17:30:00,52.2,38.3,29.66,SE,141,5.0,5.0,59,0.00,,,0.00,VWS V14.01,2013-04-04 23:30:00,
2013-04-04 17:35:00,52.1,39.9,29.66,SSE,154,5.0,6.0,63,0.00,,,0.00,VWS V14.01,2013-04-04 23:35:00,
2013-04-04 17:40:00,51.9,40.9,29.65,SE,128,4.0,5.0,66,0.00,,,0.00,VWS V14.01,2013-04-04 23:40:00,
2013-04-04 17:45:00,51.8,41.2,29.66,SE,141,4.0,4.0,67,0.00,,,0.00,VWS V14.01,2013-04-04 23:45:00,
2013-04-04 17:50:00,51.7,40.3,29.65,ESE,110,5.0,7.0,65,0.00,,,0.00,VWS V14.01,2013-04-04 23:50:00,
2013-04-04 17:55:00,51.4,41.2,29.65,ESE,118,5.0,6.0,68,0.00,,,0.00,VWS V14.01,2013-04-04 23:55:00,
2013-04-04 18:00:00,50.7,40.9,29.65,SE,129,3.0,7.0,69,0.00,,,0.00,VWS V14.01,2013-04-05 00:00:00,
2013-04-04 18:05:00,50.2,40.4,29.65,SE,124,2.0,7.0,69,0.00,,,0.00,VWS V14.01,2013-04-05 00:05:00,
2013-04-04 18:06:00,50.1,40.3,29.65,SE,143,4.0,7.0,69,0.00,,,0.00,VWS V14.01,2013-04-05 00:06:00,
2013-04-04 18:10:00,50.0,39.1,29.65,SSE,160,2.0,7.0,66,0.00,,,0.00,VWS V14.01,2013-04-05 00:10:00,
2013-04-04 18:11:00,49.9,39.8,29.65,SW,218,3.0,4.0,68,0.00,,,0.00,VWS V14.01,2013-04-05 00:11:00,
2013-04-04 18:15:00,49.6,40.6,29.66,SSE,163,2.0,5.0,71,0.00,,,0.00,VWS V14.01,2013-04-05 00:15:00,
2013-04-04 18:16:00,49.5,40.9,29.65,SSE,163,2.0,2.0,72,0.00,,,0.00,VWS V14.01,2013-04-05 00:16:00,
2013-04-04 18:20:00,49.2,41.3,29.65,South,181,2.0,4.0,74,0.00,,,0.00,VWS V14.01,2013-04-05 00:20:00,
2013-04-04 18:21:00,49.1,41.5,29.65,SSE,152,2.0,2.0,75,0.00,,,0.00,VWS V14.01,2013-04-05 00:21:00,
2013-04-04 18:25:00,48.9,41.3,29.65,SSE,158,2.0,3.0,75,0.00,,,0.00,VWS V14.01,2013-04-05 00:25:00,
2013-04-04 18:26:00,48.8,41.2,29.65,SSE,167,4.0,4.0,75,0.00,,,0.00,VWS V14.01,2013-04-05 00:26:00,
2013-04-04 18:30:00,48.6,40.7,29.65,SSE,160,8.0,8.0,74,0.00,,,0.00,VWS V14.01,2013-04-05 00:30:00,
2013-04-04 18:31:00,48.5,40.6,29.65,SSE,167,4.0,8.0,74,0.00,,,0.00,VWS V14.01,2013-04-05 00:31:00,
2013-04-04 18:35:00,48.3,41.1,29.65,SSW,205,4.0,8.0,76,0.00,,,0.00,VWS V14.01,2013-04-05 00:35:00,
2013-04-04 18:36:00,48.3,40.8,29.65,SSE,163,2.0,5.0,75,0.00,,,0.00,VWS V14.01,2013-04-05 00:36:00,
2013-04-04 18:40:00,48.0,40.5,29.65,SSE,150,2.0,5.0,75,0.00,,,0.00,VWS V14.01,2013-04-05 00:40:00,
2013-04-04 18:41:00,47.9,40.4,29.65,SSE,167,1.0,3.0,75,0.00,,,0.00,VWS V14.01,2013-04-05 00:41:00,
2013-04-04 18:45:00,47.5,40.0,29.65,SE,132,4.0,6.0,75,0.00,,,0.00,VWS V14.01,2013-04-05 00:45:00,
2013-04-04 18:46:00,47.4,39.9,29.65,SE,141,4.0,6.0,75,0.00,,,0.00,VWS V14.01,2013-04-05 00:46:00,
2013-04-04 18:50:00,47.2,40.0,29.65,SSE,167,1.0,6.0,76,0.00,,,0.00,VWS V14.01,2013-04-05 00:50:00,
2013-04-04 18:51:00,47.2,40.0,29.64,SSE,153,3.0,5.0,76,0.00,,,0.00,VWS V14.01,2013-04-05 00:51:00,
2013-04-04 18:55:00,47.1,40.3,29.64,SE,146,5.0,5.0,77,0.00,,,0.00,VWS V14.01,2013-04-05 00:55:00,
2013-04-04 18:56:00,47.1,39.9,29.64,SE,134,4.0,5.0,76,0.00,,,0.00,VWS V14.01,2013-04-05 00:56:00,
2013-04-04 19:00:00,47.2,40.0,29.64,SE,136,5.0,5.0,76,0.00,,,0.00,VWS V14.01,2013-04-05 01:00:00,
2013-04-04 19:01:00,47.2,39.3,29.64,SE,128,3.0,5.0,74,0.00,,,0.00,VWS V14.01,2013-04-05 01:01:00,
2013-04-04 19:05:00,47.3,39.4,29.64,ESE,122,6.0,6.0,74,0.00,,,0.00,VWS V14.01,2013-04-05 01:05:00,
2013-04-04 19:06:00,47.3,39.5,29.64,SE,135,3.0,6.0,74,0.00,,,0.00,VWS V14.01,2013-04-05 01:06:00,
2013-04-04 19:10:00,47.2,39.7,29.63,SE,146,7.0,7.0,75,0.00,,,0.00,VWS V14.01,2013-04-05 01:10:00,
2013-04-04 19:11:00,47.2,39.3,29.64,SE,139,4.0,7.0,74,0.00,,,0.00,VWS V14.01,2013-04-05 01:11:00,
2013-04-04 19:15:00,47.2,39.7,29.63,SE,127,4.0,7.0,75,0.00,,,0.00,VWS V14.01,2013-04-05 01:15:00,
2013-04-04 19:16:00,47.2,39.7,29.63,SE,139,4.0,7.0,75,0.00,,,0.00,VWS V14.01,2013-04-05 01:16:00,
2013-04-04 19:20:00,47.2,40.0,29.63,SE,127,3.0,7.0,76,0.00,,,0.00,VWS V14.01,2013-04-05 01:20:00,
2013-04-04 19:22:00,47.2,40.0,29.63,ESE,103,4.0,6.0,76,0.00,,,0.00,VWS V14.01,2013-04-05 01:22:00,
2013-04-04 19:25:00,47.3,40.1,29.63,SSE,160,4.0,7.0,76,0.01,,,0.01,VWS V14.01,2013-04-05 01:25:00,
2013-04-04 19:27:00,47.3,40.1,29.63,SE,141,4.0,6.0,76,0.01,,,0.01,VWS V14.01,2013-04-05 01:27:00,
2013-04-04 19:30:00,47.3,40.5,29.63,SSE,156,3.0,6.0,77,0.01,,,0.01,VWS V14.01,2013-04-05 01:30:00,
2013-04-04 19:32:00,47.1,39.9,29.63,SE,130,2.0,4.0,76,0.01,,,0.01,VWS V14.01,2013-04-05 01:32:00,
2013-04-04 19:35:00,47.0,40.2,29.63,SSE,149,4.0,5.0,77,0.01,,,0.01,VWS V14.01,2013-04-05 01:35:00,
2013-04-04 19:37:00,46.9,40.1,29.63,SSE,160,2.0,5.0,77,0.01,,,0.01,VWS V14.01,2013-04-05 01:37:00,
2013-04-04 19:40:00,46.8,40.0,29.63,SSE,154,3.0,5.0,77,0.01,,,0.01,VWS V14.01,2013-04-05 01:40:00,
2013-04-04 19:42:00,46.8,40.3,29.63,SSE,149,1.0,3.0,78,0.01,,,0.01,VWS V14.01,2013-04-05 01:42:00,
2013-04-04 19:45:00,46.6,40.5,29.63,SSW,212,1.0,3.0,79,0.01,,,0.01,VWS V14.01,2013-04-05 01:45:00,
2013-04-04 19:47:00,46.5,40.3,29.63,SW,215,1.0,2.0,79,0.01,,,0.01,VWS V14.01,2013-04-05 01:47:00,
2013-04-04 19:50:00,46.3,40.5,29.63,SSW,209,1.0,2.0,80,0.01,,,0.01,VWS V14.01,2013-04-05 01:50:00,
2013-04-04 19:52:00,46.1,40.0,29.63,SE,146,2.0,5.0,79,0.01,,,0.01,VWS V14.01,2013-04-05 01:52:00,
2013-04-04 19:55:00,45.9,40.4,29.62,SE,133,3.0,5.0,81,0.01,,,0.01,VWS V14.01,2013-04-05 01:55:00,
2013-04-04 19:57:00,45.7,40.2,29.62,SE,126,1.0,3.0,81,0.01,,,0.01,VWS V14.01,2013-04-05 01:57:00,
2013-04-04 20:00:00,45.5,40.3,29.62,ESE,123,3.0,4.0,82,0.01,,,0.01,VWS V14.01,2013-04-05 02:00:00,
2013-04-04 20:02:00,45.5,40.3,29.62,ESE,120,3.0,4.0,82,0.01,,,0.01,VWS V14.01,2013-04-05 02:02:00,
2013-04-04 20:05:00,45.6,40.4,29.62,ESE,121,3.0,4.0,82,0.01,,,0.01,VWS V14.01,2013-04-05 02:05:00,
2013-04-04 20:07:00,45.6,40.7,29.62,ESE,112,3.0,4.0,83,0.01,,,0.01,VWS V14.01,2013-04-05 02:07:00,
2013-04-04 20:10:00,45.7,40.8,29.62,ESE,113,5.0,5.0,83,0.01,,,0.01,VWS V14.01,2013-04-05 02:10:00,
2013-04-04 20:12:00,45.7,40.8,29.62,SE,142,3.0,5.0,83,0.01,,,0.01,VWS V14.01,2013-04-05 02:12:00,
2013-04-04 20:15:00,45.7,41.2,29.62,SE,134,4.0,5.0,84,0.01,,,0.01,VWS V14.01,2013-04-05 02:15:00,
2013-04-04 20:17:00,45.6,41.4,29.62,ESE,117,2.0,4.0,85,0.01,,,0.01,VWS V14.01,2013-04-05 02:17:00,
2013-04-04 20:20:00,45.6,41.4,29.62,ESE,108,3.0,4.0,85,0.01,,,0.01,VWS V14.01,2013-04-05 02:20:00,
2013-04-04 20:22:00,45.5,41.6,29.62,ESE,110,2.0,3.0,86,0.01,,,0.01,VWS V14.01,2013-04-05 02:22:00,
2013-04-04 20:25:00,45.4,41.5,29.62,ESE,113,3.0,3.0,86,0.01,,,0.01,VWS V14.01,2013-04-05 02:25:00,
2013-04-04 20:27:00,45.4,41.8,29.61,ESE,114,4.0,4.0,87,0.00,,,0.01,VWS V14.01,2013-04-05 02:27:00,
2013-04-04 20:30:00,45.3,41.7,29.61,East,91,4.0,4.0,87,0.00,,,0.01,VWS V14.01,2013-04-05 02:30:00,
2013-04-04 20:32:00,45.4,41.8,29.61,ESE,105,5.0,5.0,87,0.00,,,0.01,VWS V14.01,2013-04-05 02:32:00,
2013-04-04 20:35:00,45.4,41.8,29.61,ESE,120,3.0,5.0,87,0.00,,,0.01,VWS V14.01,2013-04-05 02:35:00,
2013-04-04 20:37:00,45.5,41.9,29.61,ESE,122,3.0,4.0,87,0.00,,,0.01,VWS V14.01,2013-04-05 02:37:00,
2013-04-04 20:40:00,45.6,42.0,29.61,SE,128,1.0,4.0,87,0.00,,,0.01,VWS V14.01,2013-04-05 02:40:00,
2013-04-04 20:42:00,45.6,42.0,29.61,SE,135,1.0,3.0,87,0.00,,,0.01,VWS V14.01,2013-04-05 02:42:00,
2013-04-04 20:45:00,45.6,42.0,29.61,ESE,117,2.0,3.0,87,0.00,,,0.01,VWS V14.01,2013-04-05 02:45:00,
2013-04-04 20:47:00,45.7,42.1,29.61,ESE,105,2.0,3.0,87,0.00,,,0.01,VWS V14.01,2013-04-05 02:47:00,
2013-04-04 20:50:00,45.7,42.1,29.61,ESE,110,2.0,3.0,87,0.00,,,0.01,VWS V14.01,2013-04-05 02:50:00,
2013-04-04 20:52:00,45.6,42.3,29.60,ESE,113,3.0,4.0,88,0.00,,,0.01,VWS V14.01,2013-04-05 02:52:00,
2013-04-04 20:55:00,45.7,42.4,29.60,ESE,116,3.0,4.0,88,0.00,,,0.01,VWS V14.01,2013-04-05 02:55:00,
2013-04-04 20:57:00,45.7,42.4,29.60,ESE,117,4.0,4.0,88,0.00,,,0.01,VWS V14.01,2013-04-05 02:57:00,
2013-04-04 21:00:00,45.8,42.5,29.60,ESE,118,3.0,4.0,88,0.00,,,0.01,VWS V14.01,2013-04-05 03:00:00,
2013-04-04 21:02:00,45.8,42.5,29.60,ESE,119,2.0,4.0,88,0.00,,,0.01,VWS V14.01,2013-04-05 03:02:00,
2013-04-04 21:05:00,45.8,42.5,29.60,ESE,110,3.0,4.0,88,0.00,,,0.01,VWS V14.01,2013-04-05 03:05:00,
2013-04-04 21:07:00,45.9,42.5,29.60,ESE,121,4.0,4.0,88,0.00,,,0.01,VWS V14.01,2013-04-05 03:07:00,
2013-04-04 21:10:00,45.8,42.5,29.60,ESE,120,3.0,5.0,88,0.00,,,0.01,VWS V14.01,2013-04-05 03:10:00,
2013-04-04 21:12:00,45.7,42.4,29.60,ESE,107,4.0,4.0,88,0.00,,,0.01,VWS V14.01,2013-04-05 03:12:00,
2013-04-04 21:15:00,45.7,42.4,29.60,SE,134,2.0,4.0,88,0.00,,,0.01,VWS V14.01,2013-04-05 03:15:00,
2013-04-04 21:17:00,45.7,42.1,29.60,SE,142,2.0,2.0,87,0.00,,,0.01,VWS V14.01,2013-04-05 03:17:00,
2013-04-04 21:20:00,45.6,42.0,29.60,ESE,118,2.0,3.0,87,0.00,,,0.01,VWS V14.01,2013-04-05 03:20:00,
2013-04-04 21:22:00,45.6,42.3,29.60,SE,127,2.0,3.0,88,0.00,,,0.01,VWS V14.01,2013-04-05 03:22:00,
2013-04-04 21:25:00,45.6,42.3,29.60,SE,131,2.0,3.0,88,0.00,,,0.01,VWS V14.01,2013-04-05 03:25:00,
2013-04-04 21:27:00,45.6,42.3,29.60,SE,139,1.0,2.0,88,0.00,,,0.01,VWS V14.01,2013-04-05 03:27:00,
2013-04-04 21:30:00,45.6,42.3,29.60,SE,133,1.0,2.0,88,0.00,,,0.01,VWS V14.01,2013-04-05 03:30:00,
2013-04-04 21:32:00,45.6,42.3,29.60,SE,136,2.0,2.0,88,0.00,,,0.01,VWS V14.01,2013-04-05 03:32:00,
2013-04-04 21:35:00,45.6,42.3,29.60,SE,135,1.0,2.0,88,0.00,,,0.01,VWS V14.01,2013-04-05 03:35:00,
2013-04-04 21:37:00,45.5,42.5,29.60,SE,134,1.0,2.0,89,0.00,,,0.01,VWS V14.01,2013-04-05 03:37:00,
2013-04-04 21:40:00,45.5,42.5,29.60,ESE,121,2.0,2.0,89,0.00,,,0.01,VWS V14.01,2013-04-05 03:40:00,
2013-04-04 21:42:00,45.6,42.8,29.60,SE,126,2.0,3.0,90,0.00,,,0.01,VWS V14.01,2013-04-05 03:42:00,
2013-04-04 21:45:00,45.8,43.0,29.60,ESE,109,3.0,4.0,90,0.00,,,0.01,VWS V14.01,2013-04-05 03:45:00,
2013-04-04 21:47:00,46.0,43.0,29.60,ESE,117,4.0,4.0,89,0.00,,,0.01,VWS V14.01,2013-04-05 03:47:00,
2013-04-04 21:50:00,46.1,43.0,29.60,ESE,117,4.0,5.0,89,0.00,,,0.01,VWS V14.01,2013-04-05 03:50:00,
2013-04-04 21:52:00,46.2,43.1,29.60,SE,129,4.0,6.0,89,0.00,,,0.01,VWS V14.01,2013-04-05 03:52:00,
2013-04-04 21:55:00,46.3,43.2,29.60,SE,139,3.0,6.0,89,0.00,,,0.01,VWS V14.01,2013-04-05 03:55:00,
2013-04-04 21:57:00,46.4,43.3,29.60,SE,139,3.0,6.0,89,0.00,,,0.01,VWS V14.01,2013-04-05 03:57:00,
2013-04-04 22:00:00,46.4,43.3,29.60,SSE,153,3.0,5.0,89,0.00,,,0.01,VWS V14.01,2013-04-05 04:00:00,
2013-04-04 22:05:00,46.1,43.0,29.60,SE,130,1.0,3.0,89,0.00,,,0.01,VWS V14.01,2013-04-05 04:05:00,
2013-04-04 22:10:00,45.9,43.1,29.60,SSE,152,4.0,6.0,90,0.00,,,0.01,VWS V14.01,2013-04-05 04:10:00,
2013-04-04 22:15:00,45.6,42.8,29.59,SE,141,5.0,7.0,90,0.00,,,0.01,VWS V14.01,2013-04-05 04:15:00,
2013-04-04 22:20:00,45.2,42.5,29.60,SE,135,8.0,9.0,90,0.00,,,0.01,VWS V14.01,2013-04-05 04:20:00,
2013-04-04 22:25:00,44.9,42.2,29.60,SSE,150,4.0,7.0,90,0.00,,,0.01,VWS V14.01,2013-04-05 04:25:00,
2013-04-04 22:30:00,44.9,42.4,29.60,SE,143,4.0,6.0,91,0.00,,,0.01,VWS V14.01,2013-04-05 04:30:00,
2013-04-04 22:35:00,44.7,42.2,29.60,SSE,148,4.0,6.0,91,0.00,,,0.01,VWS V14.01,2013-04-05 04:35:00,
2013-04-04 22:40:00,44.6,42.1,29.60,SSE,150,4.0,8.0,91,0.00,,,0.01,VWS V14.01,2013-04-05 04:40:00,
2013-04-04 22:45:00,44.7,42.5,29.60,SSE,148,5.0,6.0,92,0.00,,,0.01,VWS V14.01,2013-04-05 04:45:00,
2013-04-04 22:50:00,44.8,42.6,29.60,SSE,153,6.0,8.0,92,0.00,,,0.01,VWS V14.01,2013-04-05 04:50:00,
2013-04-04 22:51:00,44.8,42.6,29.60,SSE,153,2.0,6.0,92,0.00,,,0.01,VWS V14.01,2013-04-05 04:51:00,
2013-04-04 22:55:00,44.9,42.7,29.60,SE,127,6.0,8.0,92,0.00,,,0.01,VWS V14.01,2013-04-05 04:55:00,
2013-04-04 22:56:00,45.0,42.5,29.60,South,174,4.0,6.0,91,0.00,,,0.01,VWS V14.01,2013-04-05 04:56:00,
2013-04-04 23:00:00,45.1,42.6,29.60,SSE,160,7.0,9.0,91,0.00,,,0.01,VWS V14.01,2013-04-05 05:00:00,
2013-04-04 23:01:00,45.1,42.6,29.60,SSE,153,4.0,7.0,91,0.00,,,0.01,VWS V14.01,2013-04-05 05:01:00,
2013-04-04 23:05:00,45.0,42.5,29.61,ESE,118,4.0,7.0,91,0.00,,,0.01,VWS V14.01,2013-04-05 05:05:00,
2013-04-04 23:06:00,44.9,42.4,29.61,SE,127,2.0,4.0,91,0.00,,,0.01,VWS V14.01,2013-04-05 05:06:00,
2013-04-04 23:10:00,44.9,42.4,29.61,SE,139,3.0,5.0,91,0.00,,,0.01,VWS V14.01,2013-04-05 05:10:00,
2013-04-04 23:11:00,44.9,42.4,29.61,SSE,155,3.0,4.0,91,0.00,,,0.01,VWS V14.01,2013-04-05 05:11:00,
2013-04-04 23:15:00,44.9,42.7,29.61,SSE,152,3.0,7.0,92,0.00,,,0.01,VWS V14.01,2013-04-05 05:15:00,
2013-04-04 23:16:00,44.9,42.7,29.61,SE,134,3.0,4.0,92,0.00,,,0.01,VWS V14.01,2013-04-05 05:16:00,
2013-04-04 23:20:00,45.1,42.9,29.61,SE,143,5.0,7.0,92,0.00,,,0.01,VWS V14.01,2013-04-05 05:20:00,
2013-04-04 23:21:00,45.2,42.7,29.61,SE,143,3.0,6.0,91,0.00,,,0.01,VWS V14.01,2013-04-05 05:21:00,
2013-04-04 23:25:00,45.3,42.8,29.61,SSE,153,5.0,7.0,91,0.00,,,0.01,VWS V14.01,2013-04-05 05:25:00,
2013-04-04 23:26:00,45.3,42.8,29.61,SE,129,6.0,6.0,91,0.00,,,0.01,VWS V14.01,2013-04-05 05:26:00,
2013-04-04 23:30:00,45.3,42.8,29.61,ESE,121,3.0,6.0,91,0.00,,,0.01,VWS V14.01,2013-04-05 05:30:00,
2013-04-04 23:31:00,45.3,42.8,29.61,SSE,149,3.0,6.0,91,0.00,,,0.01,VWS V14.01,2013-04-05 05:31:00,
2013-04-04 23:35:00,45.3,42.8,29.61,South,186,5.0,7.0,91,0.00,,,0.01,VWS V14.01,2013-04-05 05:35:00,
2013-04-04 23:36:00,45.2,42.7,29.61,SE,145,6.0,8.0,91,0.00,,,0.01,VWS V14.01,2013-04-05 05:36:00,
2013-04-04 23:40:00,45.1,42.6,29.61,SSW,212,3.0,8.0,91,0.00,,,0.01,VWS V14.01,2013-04-05 05:40:00,
2013-04-04 23:41:00,45.1,42.6,29.61,SE,128,2.0,5.0,91,0.00,,,0.01,VWS V14.01,2013-04-05 05:41:00,
2013-04-04 23:45:00,45.0,42.5,29.61,SE,141,1.0,5.0,91,0.00,,,0.01,VWS V14.01,2013-04-05 05:45:00,
2013-04-04 23:46:00,44.9,42.4,29.61,ESE,119,3.0,3.0,91,0.00,,,0.01,VWS V14.01,2013-04-05 05:46:00,
2013-04-04 23:50:00,44.8,42.3,29.61,ESE,115,2.0,4.0,91,0.00,,,0.01,VWS V14.01,2013-04-05 05:50:00,
2013-04-04 23:51:00,44.8,42.3,29.61,ESE,120,2.0,2.0,91,0.00,,,0.01,VWS V14.01,2013-04-05 05:51:00,
2013-04-04 23:55:00,44.8,42.3,29.61,East,93,4.0,5.0,91,0.00,,,0.01,VWS V14.01,2013-04-05 05:55:00,
2013-04-04 23:56:00,44.8,42.3,29.61,ENE,74,4.0,7.0,91,0.00,,,0.01,VWS V14.01,2013-04-05 05:56:00,